sensor_id;sensor_type;location;lat;lon;timestamp;P1;durP1;ratioP1;P2;durP2;ratioP2
61709;SDS011;47633;51.494;5.386;2022-09-03T00:00:44;6.38;;;2.75;;
61709;SDS011;47633;51.494;5.386;2022-09-03T00:03:17;5.38;;;2.75;;
61709;SDS011;47633;51.494;5.386;2022-09-03T00:05:50;5.15;;;2.40;;
61709;SDS011;47633;51.494;5.386;2022-09-03T00:08:36;5.75;;;2.60;;
61709;SDS011;47633;51.494;5.386;2022-09-03T00:13:56;4.72;;;2.45;;
61709;SDS011;47633;51.494;5.386;2022-09-03T00:16:27;5.75;;;2.47;;
61709;SDS011;47633;51.494;5.386;2022-09-03T00:19:00;4.72;;;2.33;;
61709;SDS011;47633;51.494;5.386;2022-09-03T00:24:15;6.03;;;2.70;;
61709;SDS011;47633;51.494;5.386;2022-09-03T00:26:44;5.57;;;2.80;;
61709;SDS011;47633;51.494;5.386;2022-09-03T00:29:16;5.47;;;2.50;;
61709;SDS011;47633;51.494;5.386;2022-09-03T00:31:48;4.90;;;2.20;;
61709;SDS011;47633;51.494;5.386;2022-09-03T00:36:59;5.63;;;2.40;;
61709;SDS011;47633;51.494;5.386;2022-09-03T00:39:25;5.03;;;2.38;;
61709;SDS011;47633;51.494;5.386;2022-09-03T00:42:05;5.00;;;2.30;;
61709;SDS011;47633;51.494;5.386;2022-09-03T00:50:03;4.20;;;2.03;;
61709;SDS011;47633;51.494;5.386;2022-09-03T01:00:09;5.20;;;2.50;;
61709;SDS011;47633;51.494;5.386;2022-09-03T01:02:49;4.75;;;2.53;;
61709;SDS011;47633;51.494;5.386;2022-09-03T01:11:22;5.60;;;2.10;;
61709;SDS011;47633;51.494;5.386;2022-09-03T01:17:12;4.32;;;2.50;;
61709;SDS011;47633;51.494;5.386;2022-09-03T01:34:01;4.57;;;2.50;;
61709;SDS011;47633;51.494;5.386;2022-09-03T01:39:03;5.97;;;2.53;;
61709;SDS011;47633;51.494;5.386;2022-09-03T01:41:35;6.10;;;2.45;;
61709;SDS011;47633;51.494;5.386;2022-09-03T01:47:24;5.80;;;2.58;;
61709;SDS011;47633;51.494;5.386;2022-09-03T01:57:53;6.07;;;2.80;;
61709;SDS011;47633;51.494;5.386;2022-09-03T02:00:23;7.00;;;2.80;;
61709;SDS011;47633;51.494;5.386;2022-09-03T02:02:51;7.72;;;3.03;;
61709;SDS011;47633;51.494;5.386;2022-09-03T02:05:18;5.75;;;3.03;;
61709;SDS011;47633;51.494;5.386;2022-09-03T02:07:49;5.50;;;3.20;;
61709;SDS011;47633;51.494;5.386;2022-09-03T02:10:21;6.15;;;3.20;;
61709;SDS011;47633;51.494;5.386;2022-09-03T02:13:30;6.70;;;3.20;;
61709;SDS011;47633;51.494;5.386;2022-09-03T02:15:52;7.63;;;3.40;;
61709;SDS011;47633;51.494;5.386;2022-09-03T02:18:26;7.63;;;3.17;;
61709;SDS011;47633;51.494;5.386;2022-09-03T02:20:55;8.77;;;3.53;;
61709;SDS011;47633;51.494;5.386;2022-09-03T02:23:23;10.23;;;3.53;;
61709;SDS011;47633;51.494;5.386;2022-09-03T02:25:51;7.47;;;3.28;;
61709;SDS011;47633;51.494;5.386;2022-09-03T02:28:20;7.13;;;3.53;;
61709;SDS011;47633;51.494;5.386;2022-09-03T02:30:47;6.90;;;3.55;;
61709;SDS011;47633;51.494;5.386;2022-09-03T02:33:12;6.88;;;3.58;;
61709;SDS011;47633;51.494;5.386;2022-09-03T02:35:39;6.68;;;3.75;;
61709;SDS011;47633;51.494;5.386;2022-09-03T02:38:12;9.90;;;4.45;;
61709;SDS011;47633;51.494;5.386;2022-09-03T02:43:04;7.40;;;4.03;;
61709;SDS011;47633;51.494;5.386;2022-09-03T02:45:33;8.63;;;4.20;;
61709;SDS011;47633;51.494;5.386;2022-09-03T02:48:03;7.03;;;4.40;;
61709;SDS011;47633;51.494;5.386;2022-09-03T02:50:28;9.02;;;4.63;;
61709;SDS011;47633;51.494;5.386;2022-09-03T02:52:54;8.10;;;4.43;;
61709;SDS011;47633;51.494;5.386;2022-09-03T02:55:19;9.23;;;4.73;;
61709;SDS011;47633;51.494;5.386;2022-09-03T02:57:45;6.38;;;4.18;;
61709;SDS011;47633;51.494;5.386;2022-09-03T03:00:10;8.98;;;4.82;;
61709;SDS011;47633;51.494;5.386;2022-09-03T03:02:36;9.38;;;4.82;;
61709;SDS011;47633;51.494;5.386;2022-09-03T03:05:02;8.00;;;4.65;;
61709;SDS011;47633;51.494;5.386;2022-09-03T03:07:29;10.27;;;5.28;;
61709;SDS011;47633;51.494;5.386;2022-09-03T03:09:58;8.77;;;4.57;;
61709;SDS011;47633;51.494;5.386;2022-09-03T03:12:23;9.80;;;4.85;;
61709;SDS011;47633;51.494;5.386;2022-09-03T03:14:49;9.18;;;5.28;;
61709;SDS011;47633;51.494;5.386;2022-09-03T03:17:15;9.43;;;4.80;;
61709;SDS011;47633;51.494;5.386;2022-09-03T03:19:40;9.05;;;5.13;;
61709;SDS011;47633;51.494;5.386;2022-09-03T03:22:05;10.67;;;5.60;;
61709;SDS011;47633;51.494;5.386;2022-09-03T03:24:30;8.37;;;5.40;;
61709;SDS011;47633;51.494;5.386;2022-09-03T03:26:55;9.57;;;5.00;;
61709;SDS011;47633;51.494;5.386;2022-09-03T03:29:23;8.85;;;5.07;;
61709;SDS011;47633;51.494;5.386;2022-09-03T03:31:49;9.65;;;5.47;;
61709;SDS011;47633;51.494;5.386;2022-09-03T03:34:15;10.32;;;5.40;;
61709;SDS011;47633;51.494;5.386;2022-09-03T03:36:40;10.68;;;5.97;;
61709;SDS011;47633;51.494;5.386;2022-09-03T03:39:05;13.23;;;5.63;;
61709;SDS011;47633;51.494;5.386;2022-09-03T03:41:31;9.40;;;4.90;;
61709;SDS011;47633;51.494;5.386;2022-09-03T03:43:59;9.32;;;5.50;;
61709;SDS011;47633;51.494;5.386;2022-09-03T03:46:30;8.50;;;5.18;;
61709;SDS011;47633;51.494;5.386;2022-09-03T03:48:57;9.50;;;5.55;;
61709;SDS011;47633;51.494;5.386;2022-09-03T03:51:23;9.88;;;5.32;;
61709;SDS011;47633;51.494;5.386;2022-09-03T03:53:52;11.35;;;5.65;;
61709;SDS011;47633;51.494;5.386;2022-09-03T03:56:18;10.25;;;5.60;;
61709;SDS011;47633;51.494;5.386;2022-09-03T03:58:43;8.77;;;5.07;;
61709;SDS011;47633;51.494;5.386;2022-09-03T04:01:10;8.35;;;4.93;;
61709;SDS011;47633;51.494;5.386;2022-09-03T04:03:36;10.10;;;5.32;;
61709;SDS011;47633;51.494;5.386;2022-09-03T04:06:02;10.15;;;5.65;;
61709;SDS011;47633;51.494;5.386;2022-09-03T04:08:29;9.80;;;5.38;;
61709;SDS011;47633;51.494;5.386;2022-09-03T04:10:58;8.90;;;5.15;;
61709;SDS011;47633;51.494;5.386;2022-09-03T04:13:31;10.80;;;5.28;;
61709;SDS011;47633;51.494;5.386;2022-09-03T04:16:02;10.70;;;5.60;;
61709;SDS011;47633;51.494;5.386;2022-09-03T04:18:29;9.82;;;5.70;;
61709;SDS011;47633;51.494;5.386;2022-09-03T04:21:02;10.15;;;5.40;;
61709;SDS011;47633;51.494;5.386;2022-09-03T04:23:31;9.13;;;4.93;;
61709;SDS011;47633;51.494;5.386;2022-09-03T04:25:57;9.93;;;5.40;;
61709;SDS011;47633;51.494;5.386;2022-09-03T04:28:22;8.48;;;4.90;;
61709;SDS011;47633;51.494;5.386;2022-09-03T04:30:48;8.10;;;4.97;;
61709;SDS011;47633;51.494;5.386;2022-09-03T04:33:13;8.90;;;5.30;;
61709;SDS011;47633;51.494;5.386;2022-09-03T04:35:39;12.45;;;5.55;;
61709;SDS011;47633;51.494;5.386;2022-09-03T04:38:05;8.43;;;4.70;;
61709;SDS011;47633;51.494;5.386;2022-09-03T04:40:31;9.65;;;5.07;;
61709;SDS011;47633;51.494;5.386;2022-09-03T04:42:57;8.73;;;5.10;;
61709;SDS011;47633;51.494;5.386;2022-09-03T04:45:25;8.52;;;5.22;;
61709;SDS011;47633;51.494;5.386;2022-09-03T04:48:02;7.93;;;4.78;;
61709;SDS011;47633;51.494;5.386;2022-09-03T04:50:29;8.68;;;4.85;;
61709;SDS011;47633;51.494;5.386;2022-09-03T04:53:00;9.48;;;4.97;;
61709;SDS011;47633;51.494;5.386;2022-09-03T04:55:26;10.75;;;4.50;;
61709;SDS011;47633;51.494;5.386;2022-09-03T04:57:52;9.60;;;4.93;;
61709;SDS011;47633;51.494;5.386;2022-09-03T05:00:17;7.32;;;4.88;;
61709;SDS011;47633;51.494;5.386;2022-09-03T05:02:43;9.05;;;4.82;;
61709;SDS011;47633;51.494;5.386;2022-09-03T05:05:11;8.40;;;5.10;;
61709;SDS011;47633;51.494;5.386;2022-09-03T05:07:37;8.95;;;5.05;;
61709;SDS011;47633;51.494;5.386;2022-09-03T05:10:08;9.75;;;5.10;;
61709;SDS011;47633;51.494;5.386;2022-09-03T05:12:44;10.65;;;5.82;;
61709;SDS011;47633;51.494;5.386;2022-09-03T05:15:11;9.23;;;5.35;;
61709;SDS011;47633;51.494;5.386;2022-09-03T05:17:36;8.95;;;4.75;;
61709;SDS011;47633;51.494;5.386;2022-09-03T05:20:03;9.70;;;5.07;;
61709;SDS011;47633;51.494;5.386;2022-09-03T05:22:30;10.98;;;5.40;;
61709;SDS011;47633;51.494;5.386;2022-09-03T05:24:55;10.97;;;4.90;;
61709;SDS011;47633;51.494;5.386;2022-09-03T05:27:21;10.63;;;5.13;;
61709;SDS011;47633;51.494;5.386;2022-09-03T05:29:46;9.43;;;5.13;;
61709;SDS011;47633;51.494;5.386;2022-09-03T05:32:11;9.93;;;5.25;;
61709;SDS011;47633;51.494;5.386;2022-09-03T05:34:37;10.30;;;5.22;;
61709;SDS011;47633;51.494;5.386;2022-09-03T05:37:03;9.15;;;5.00;;
61709;SDS011;47633;51.494;5.386;2022-09-03T05:39:28;9.60;;;4.85;;
61709;SDS011;47633;51.494;5.386;2022-09-03T05:41:53;10.37;;;5.03;;
61709;SDS011;47633;51.494;5.386;2022-09-03T05:44:19;7.87;;;4.80;;
61709;SDS011;47633;51.494;5.386;2022-09-03T05:46:47;9.50;;;4.60;;
61709;SDS011;47633;51.494;5.386;2022-09-03T05:49:13;9.68;;;4.68;;
61709;SDS011;47633;51.494;5.386;2022-09-03T05:51:39;10.27;;;5.43;;
61709;SDS011;47633;51.494;5.386;2022-09-03T05:54:04;10.15;;;4.68;;
61709;SDS011;47633;51.494;5.386;2022-09-03T05:56:32;7.85;;;4.43;;
61709;SDS011;47633;51.494;5.386;2022-09-03T05:59:00;10.20;;;5.13;;
61709;SDS011;47633;51.494;5.386;2022-09-03T06:01:36;8.60;;;5.20;;
61709;SDS011;47633;51.494;5.386;2022-09-03T06:04:04;9.82;;;5.00;;
61709;SDS011;47633;51.494;5.386;2022-09-03T06:06:32;9.02;;;4.40;;
61709;SDS011;47633;51.494;5.386;2022-09-03T06:09:01;9.80;;;4.88;;
61709;SDS011;47633;51.494;5.386;2022-09-03T06:11:28;8.48;;;4.57;;
61709;SDS011;47633;51.494;5.386;2022-09-03T06:13:56;7.45;;;4.47;;
61709;SDS011;47633;51.494;5.386;2022-09-03T06:16:22;9.35;;;4.90;;
61709;SDS011;47633;51.494;5.386;2022-09-03T06:18:47;7.88;;;4.50;;
61709;SDS011;47633;51.494;5.386;2022-09-03T06:21:13;7.95;;;4.68;;
61709;SDS011;47633;51.494;5.386;2022-09-03T06:23:39;10.27;;;4.70;;
61709;SDS011;47633;51.494;5.386;2022-09-03T06:26:05;12.07;;;4.28;;
61709;SDS011;47633;51.494;5.386;2022-09-03T06:28:33;11.65;;;4.68;;
61709;SDS011;47633;51.494;5.386;2022-09-03T06:31:04;9.77;;;4.70;;
61709;SDS011;47633;51.494;5.386;2022-09-03T06:33:31;8.60;;;4.15;;
61709;SDS011;47633;51.494;5.386;2022-09-03T06:35:58;8.00;;;4.43;;
61709;SDS011;47633;51.494;5.386;2022-09-03T06:38:25;10.82;;;4.45;;
61709;SDS011;47633;51.494;5.386;2022-09-03T06:40:55;9.98;;;4.65;;
61709;SDS011;47633;51.494;5.386;2022-09-03T06:43:22;9.13;;;4.57;;
61709;SDS011;47633;51.494;5.386;2022-09-03T06:45:52;8.77;;;4.57;;
61709;SDS011;47633;51.494;5.386;2022-09-03T06:48:18;9.70;;;4.40;;
61709;SDS011;47633;51.494;5.386;2022-09-03T06:50:51;7.90;;;4.50;;
61709;SDS011;47633;51.494;5.386;2022-09-03T06:53:17;7.55;;;4.10;;
61709;SDS011;47633;51.494;5.386;2022-09-03T06:55:43;6.97;;;3.93;;
61709;SDS011;47633;51.494;5.386;2022-09-03T06:58:09;8.43;;;4.00;;
61709;SDS011;47633;51.494;5.386;2022-09-03T07:00:34;8.20;;;4.50;;
61709;SDS011;47633;51.494;5.386;2022-09-03T07:03:00;7.80;;;4.07;;
61709;SDS011;47633;51.494;5.386;2022-09-03T07:05:27;8.77;;;4.32;;
61709;SDS011;47633;51.494;5.386;2022-09-03T07:07:52;9.07;;;4.00;;
61709;SDS011;47633;51.494;5.386;2022-09-03T07:10:18;9.83;;;4.37;;
61709;SDS011;47633;51.494;5.386;2022-09-03T07:12:44;10.43;;;4.55;;
61709;SDS011;47633;51.494;5.386;2022-09-03T07:15:10;8.32;;;4.15;;
61709;SDS011;47633;51.494;5.386;2022-09-03T07:17:36;7.97;;;4.03;;
61709;SDS011;47633;51.494;5.386;2022-09-03T07:20:01;8.23;;;4.30;;
61709;SDS011;47633;51.494;5.386;2022-09-03T07:22:27;7.40;;;3.97;;
61709;SDS011;47633;51.494;5.386;2022-09-03T07:24:52;7.20;;;3.70;;
61709;SDS011;47633;51.494;5.386;2022-09-03T07:27:17;7.77;;;3.80;;
61709;SDS011;47633;51.494;5.386;2022-09-03T07:29:42;7.37;;;3.73;;
61709;SDS011;47633;51.494;5.386;2022-09-03T07:32:08;7.40;;;3.50;;
61709;SDS011;47633;51.494;5.386;2022-09-03T07:34:33;7.63;;;3.73;;
61709;SDS011;47633;51.494;5.386;2022-09-03T07:36:59;7.65;;;3.65;;
61709;SDS011;47633;51.494;5.386;2022-09-03T07:39:24;6.68;;;3.20;;
61709;SDS011;47633;51.494;5.386;2022-09-03T07:41:50;8.33;;;3.40;;
61709;SDS011;47633;51.494;5.386;2022-09-03T07:44:16;8.73;;;3.00;;
61709;SDS011;47633;51.494;5.386;2022-09-03T07:46:47;6.28;;;3.00;;
61709;SDS011;47633;51.494;5.386;2022-09-03T07:49:14;8.10;;;3.08;;
61709;SDS011;47633;51.494;5.386;2022-09-03T07:51:39;7.43;;;3.20;;
61709;SDS011;47633;51.494;5.386;2022-09-03T07:54:06;8.50;;;3.20;;
61709;SDS011;47633;51.494;5.386;2022-09-03T07:56:34;5.93;;;2.60;;
61709;SDS011;47633;51.494;5.386;2022-09-03T07:59:01;5.85;;;2.63;;
61709;SDS011;47633;51.494;5.386;2022-09-03T08:01:27;7.18;;;2.63;;
61709;SDS011;47633;51.494;5.386;2022-09-03T08:03:55;5.32;;;2.55;;
61709;SDS011;47633;51.494;5.386;2022-09-03T08:06:22;5.45;;;2.42;;
61709;SDS011;47633;51.494;5.386;2022-09-03T08:09:00;6.70;;;2.67;;
61709;SDS011;47633;51.494;5.386;2022-09-03T08:11:27;5.88;;;2.65;;
61709;SDS011;47633;51.494;5.386;2022-09-03T08:13:57;6.47;;;2.90;;
61709;SDS011;47633;51.494;5.386;2022-09-03T08:16:27;6.40;;;2.70;;
61709;SDS011;47633;51.494;5.386;2022-09-03T08:18:53;5.72;;;2.50;;
61709;SDS011;47633;51.494;5.386;2022-09-03T08:21:18;5.05;;;2.28;;
61709;SDS011;47633;51.494;5.386;2022-09-03T08:23:48;4.88;;;2.42;;
61709;SDS011;47633;51.494;5.386;2022-09-03T08:26:15;4.70;;;2.30;;
61709;SDS011;47633;51.494;5.386;2022-09-03T08:28:42;4.85;;;2.50;;
61709;SDS011;47633;51.494;5.386;2022-09-03T08:31:15;5.53;;;2.20;;
61709;SDS011;47633;51.494;5.386;2022-09-03T08:33:46;5.60;;;2.30;;
61709;SDS011;47633;51.494;5.386;2022-09-03T08:36:14;5.68;;;2.35;;
61709;SDS011;47633;51.494;5.386;2022-09-03T08:38:42;4.47;;;1.98;;
61709;SDS011;47633;51.494;5.386;2022-09-03T08:41:13;4.20;;;2.13;;
61709;SDS011;47633;51.494;5.386;2022-09-03T08:46:15;4.50;;;2.20;;
61709;SDS011;47633;51.494;5.386;2022-09-03T08:48:41;3.28;;;1.88;;
61709;SDS011;47633;51.494;5.386;2022-09-03T08:51:06;3.20;;;1.60;;
61709;SDS011;47633;51.494;5.386;2022-09-03T08:56:11;5.38;;;1.95;;
61709;SDS011;47633;51.494;5.386;2022-09-03T08:58:44;5.25;;;2.20;;
61709;SDS011;47633;51.494;5.386;2022-09-03T09:06:42;5.63;;;2.03;;
61709;SDS011;47633;51.494;5.386;2022-09-03T09:09:30;5.20;;;2.00;;
61709;SDS011;47633;51.494;5.386;2022-09-03T09:15:27;5.03;;;1.90;;
61709;SDS011;47633;51.494;5.386;2022-09-03T09:23:14;5.13;;;1.65;;
61709;SDS011;47633;51.494;5.386;2022-09-03T09:25:47;5.00;;;1.73;;
61709;SDS011;47633;51.494;5.386;2022-09-03T09:30:47;4.03;;;1.60;;
61709;SDS011;47633;51.494;5.386;2022-09-03T09:33:14;5.03;;;1.60;;
61709;SDS011;47633;51.494;5.386;2022-09-03T09:35:41;3.88;;;1.67;;
61709;SDS011;47633;51.494;5.386;2022-09-03T09:38:07;3.92;;;1.60;;
61709;SDS011;47633;51.494;5.386;2022-09-03T09:40:35;3.78;;;1.52;;
61709;SDS011;47633;51.494;5.386;2022-09-03T09:43:12;5.10;;;1.90;;
61709;SDS011;47633;51.494;5.386;2022-09-03T09:45:48;3.95;;;1.58;;
61709;SDS011;47633;51.494;5.386;2022-09-03T09:48:24;3.88;;;1.60;;
61709;SDS011;47633;51.494;5.386;2022-09-03T09:53:46;3.03;;;1.50;;
61709;SDS011;47633;51.494;5.386;2022-09-03T09:56:22;5.10;;;1.75;;
61709;SDS011;47633;51.494;5.386;2022-09-03T09:58:49;3.72;;;1.40;;
61709;SDS011;47633;51.494;5.386;2022-09-03T10:01:25;3.22;;;1.45;;
61709;SDS011;47633;51.494;5.386;2022-09-03T10:03:55;4.78;;;1.58;;
61709;SDS011;47633;51.494;5.386;2022-09-03T10:06:23;4.43;;;1.45;;
61709;SDS011;47633;51.494;5.386;2022-09-03T10:09:18;5.30;;;1.52;;
61709;SDS011;47633;51.494;5.386;2022-09-03T10:11:48;3.47;;;1.40;;
61709;SDS011;47633;51.494;5.386;2022-09-03T10:14:27;4.88;;;1.77;;
61709;SDS011;47633;51.494;5.386;2022-09-03T10:17:00;5.85;;;1.48;;
61709;SDS011;47633;51.494;5.386;2022-09-03T10:19:42;3.22;;;1.27;;
61709;SDS011;47633;51.494;5.386;2022-09-03T10:22:39;4.63;;;1.80;;
61709;SDS011;47633;51.494;5.386;2022-09-03T10:25:10;5.05;;;1.42;;
61709;SDS011;47633;51.494;5.386;2022-09-03T10:27:40;4.13;;;1.65;;
61709;SDS011;47633;51.494;5.386;2022-09-03T10:30:06;3.33;;;1.20;;
61709;SDS011;47633;51.494;5.386;2022-09-03T10:38:05;3.53;;;1.35;;
61709;SDS011;47633;51.494;5.386;2022-09-03T10:46:15;2.90;;;1.23;;
61709;SDS011;47633;51.494;5.386;2022-09-03T10:49:31;4.25;;;1.60;;
61709;SDS011;47633;51.494;5.386;2022-09-03T10:51:59;3.97;;;1.77;;
61709;SDS011;47633;51.494;5.386;2022-09-03T10:54:40;2.92;;;1.45;;
61709;SDS011;47633;51.494;5.386;2022-09-03T10:57:30;3.10;;;1.20;;
61709;SDS011;47633;51.494;5.386;2022-09-03T11:00:07;5.47;;;1.52;;
61709;SDS011;47633;51.494;5.386;2022-09-03T11:02:45;3.60;;;1.50;;
61709;SDS011;47633;51.494;5.386;2022-09-03T11:05:22;2.97;;;1.42;;
61709;SDS011;47633;51.494;5.386;2022-09-03T11:08:00;3.53;;;1.58;;
61709;SDS011;47633;51.494;5.386;2022-09-03T11:10:31;4.43;;;1.60;;
61709;SDS011;47633;51.494;5.386;2022-09-03T11:13:05;4.03;;;1.58;;
61709;SDS011;47633;51.494;5.386;2022-09-03T11:16:21;2.90;;;1.70;;
61709;SDS011;47633;51.494;5.386;2022-09-03T11:21:17;3.70;;;1.58;;
61709;SDS011;47633;51.494;5.386;2022-09-03T11:23:46;2.50;;;1.35;;
61709;SDS011;47633;51.494;5.386;2022-09-03T11:26:24;2.55;;;1.20;;
61709;SDS011;47633;51.494;5.386;2022-09-03T11:29:00;3.08;;;1.40;;
61709;SDS011;47633;51.494;5.386;2022-09-03T11:34:28;2.92;;;1.40;;
61709;SDS011;47633;51.494;5.386;2022-09-03T11:37:12;2.75;;;1.27;;
61709;SDS011;47633;51.494;5.386;2022-09-03T11:39:40;5.78;;;1.45;;
61709;SDS011;47633;51.494;5.386;2022-09-03T11:42:18;2.50;;;1.30;;
61709;SDS011;47633;51.494;5.386;2022-09-03T11:47:48;3.67;;;1.70;;
61709;SDS011;47633;51.494;5.386;2022-09-03T11:50:23;3.58;;;1.40;;
61709;SDS011;47633;51.494;5.386;2022-09-03T11:52:54;3.92;;;1.77;;
61709;SDS011;47633;51.494;5.386;2022-09-03T11:55:43;3.75;;;1.40;;
61709;SDS011;47633;51.494;5.386;2022-09-03T11:58:38;2.90;;;1.58;;
61709;SDS011;47633;51.494;5.386;2022-09-03T12:01:11;5.55;;;1.80;;
61709;SDS011;47633;51.494;5.386;2022-09-03T12:03:58;3.85;;;1.70;;
61709;SDS011;47633;51.494;5.386;2022-09-03T12:06:34;3.88;;;1.73;;
61709;SDS011;47633;51.494;5.386;2022-09-03T12:09:37;6.18;;;1.70;;
61709;SDS011;47633;51.494;5.386;2022-09-03T12:18:24;2.80;;;1.50;;
61709;SDS011;47633;51.494;5.386;2022-09-03T12:23:33;4.03;;;1.70;;
61709;SDS011;47633;51.494;5.386;2022-09-03T12:26:11;6.32;;;1.67;;
61709;SDS011;47633;51.494;5.386;2022-09-03T12:28:38;4.20;;;1.70;;
61709;SDS011;47633;51.494;5.386;2022-09-03T12:33:51;5.47;;;1.63;;
61709;SDS011;47633;51.494;5.386;2022-09-03T12:36:19;5.45;;;1.70;;
61709;SDS011;47633;51.494;5.386;2022-09-03T12:38:45;3.95;;;1.50;;
61709;SDS011;47633;51.494;5.386;2022-09-03T12:41:19;3.28;;;1.52;;
61709;SDS011;47633;51.494;5.386;2022-09-03T12:43:49;4.05;;;1.60;;
61709;SDS011;47633;51.494;5.386;2022-09-03T12:46:16;3.45;;;1.50;;
61709;SDS011;47633;51.494;5.386;2022-09-03T12:51:42;3.25;;;1.50;;
61709;SDS011;47633;51.494;5.386;2022-09-03T12:54:09;4.90;;;1.60;;
61709;SDS011;47633;51.494;5.386;2022-09-03T12:56:44;2.78;;;1.42;;
61709;SDS011;47633;51.494;5.386;2022-09-03T12:59:17;5.18;;;2.05;;
61709;SDS011;47633;51.494;5.386;2022-09-03T13:01:47;3.08;;;1.48;;
61709;SDS011;47633;51.494;5.386;2022-09-03T13:04:19;3.33;;;1.60;;
61709;SDS011;47633;51.494;5.386;2022-09-03T13:06:50;3.53;;;1.52;;
61709;SDS011;47633;51.494;5.386;2022-09-03T13:09:21;3.03;;;2.00;;
61709;SDS011;47633;51.494;5.386;2022-09-03T13:11:50;3.28;;;1.48;;
61709;SDS011;47633;51.494;5.386;2022-09-03T13:14:16;4.43;;;1.42;;
61709;SDS011;47633;51.494;5.386;2022-09-03T13:19:21;5.50;;;1.33;;
61709;SDS011;47633;51.494;5.386;2022-09-03T13:22:13;2.63;;;1.40;;
61709;SDS011;47633;51.494;5.386;2022-09-03T13:25:15;5.13;;;1.40;;
61709;SDS011;47633;51.494;5.386;2022-09-03T13:30:51;2.70;;;1.23;;
61709;SDS011;47633;51.494;5.386;2022-09-03T13:33:27;4.00;;;1.30;;
61709;SDS011;47633;51.494;5.386;2022-09-03T13:39:28;2.72;;;1.20;;
61709;SDS011;47633;51.494;5.386;2022-09-03T13:42:05;5.38;;;1.50;;
61709;SDS011;47633;51.494;5.386;2022-09-03T13:44:46;3.38;;;1.63;;
61709;SDS011;47633;51.494;5.386;2022-09-03T13:50:09;3.00;;;1.40;;
61709;SDS011;47633;51.494;5.386;2022-09-03T13:53:35;3.60;;;1.45;;
61709;SDS011;47633;51.494;5.386;2022-09-03T13:55:44;3.65;;;1.65;;
61709;SDS011;47633;51.494;5.386;2022-09-03T14:00:50;4.63;;;1.35;;
61709;SDS011;47633;51.494;5.386;2022-09-03T14:12:16;3.45;;;1.52;;
61709;SDS011;47633;51.494;5.386;2022-09-03T14:14:52;4.15;;;1.45;;
61709;SDS011;47633;51.494;5.386;2022-09-03T14:17:39;4.70;;;1.40;;
61709;SDS011;47633;51.494;5.386;2022-09-03T14:23:39;4.32;;;1.63;;
61709;SDS011;47633;51.494;5.386;2022-09-03T14:25:51;3.30;;;1.45;;
61709;SDS011;47633;51.494;5.386;2022-09-03T14:31:12;2.92;;;1.65;;
61709;SDS011;47633;51.494;5.386;2022-09-03T14:39:10;3.67;;;1.50;;
61709;SDS011;47633;51.494;5.386;2022-09-03T14:49:43;3.58;;;1.50;;
61709;SDS011;47633;51.494;5.386;2022-09-03T15:00:51;5.00;;;1.60;;
61709;SDS011;47633;51.494;5.386;2022-09-03T15:09:44;3.40;;;1.40;;
61709;SDS011;47633;51.494;5.386;2022-09-03T15:14:38;5.57;;;1.70;;
61709;SDS011;47633;51.494;5.386;2022-09-03T15:28:50;4.03;;;1.70;;
61709;SDS011;47633;51.494;5.386;2022-09-03T15:31:29;3.80;;;1.50;;
61709;SDS011;47633;51.494;5.386;2022-09-03T15:36:57;6.18;;;2.13;;
61709;SDS011;47633;51.494;5.386;2022-09-03T15:39:32;3.33;;;2.15;;
61709;SDS011;47633;51.494;5.386;2022-09-03T15:44:35;6.00;;;2.97;;
61709;SDS011;47633;51.494;5.386;2022-09-03T15:47:08;6.97;;;3.95;;
61709;SDS011;47633;51.494;5.386;2022-09-03T15:54:59;15.00;;;10.82;;
61709;SDS011;47633;51.494;5.386;2022-09-03T15:57:38;16.55;;;12.20;;
61709;SDS011;47633;51.494;5.386;2022-09-03T16:00:32;17.95;;;13.20;;
61709;SDS011;47633;51.494;5.386;2022-09-03T16:03:18;17.35;;;13.88;;
61709;SDS011;47633;51.494;5.386;2022-09-03T16:06:02;17.33;;;13.98;;
61709;SDS011;47633;51.494;5.386;2022-09-03T16:14:24;12.77;;;9.88;;
61709;SDS011;47633;51.494;5.386;2022-09-03T16:16:57;13.90;;;9.85;;
61709;SDS011;47633;51.494;5.386;2022-09-03T16:19:46;15.82;;;9.52;;
61709;SDS011;47633;51.494;5.386;2022-09-03T16:22:29;12.20;;;9.40;;
61709;SDS011;47633;51.494;5.386;2022-09-03T16:25:17;13.05;;;8.50;;
61709;SDS011;47633;51.494;5.386;2022-09-03T16:28:05;11.43;;;7.65;;
61709;SDS011;47633;51.494;5.386;2022-09-03T16:33:21;12.40;;;7.38;;
61709;SDS011;47633;51.494;5.386;2022-09-03T16:36:14;10.30;;;7.05;;
61709;SDS011;47633;51.494;5.386;2022-09-03T16:39:05;9.65;;;7.30;;
61709;SDS011;47633;51.494;5.386;2022-09-03T16:41:42;10.25;;;7.00;;
61709;SDS011;47633;51.494;5.386;2022-09-03T16:44:19;10.80;;;6.63;;
61709;SDS011;47633;51.494;5.386;2022-09-03T16:49:35;8.88;;;5.63;;
61709;SDS011;47633;51.494;5.386;2022-09-03T16:57:48;9.32;;;5.68;;
61709;SDS011;47633;51.494;5.386;2022-09-03T17:06:35;8.48;;;5.25;;
61709;SDS011;47633;51.494;5.386;2022-09-03T17:09:21;6.82;;;4.57;;
61709;SDS011;47633;51.494;5.386;2022-09-03T17:12:09;7.32;;;4.40;;
61709;SDS011;47633;51.494;5.386;2022-09-03T17:14:49;8.07;;;4.68;;
61709;SDS011;47633;51.494;5.386;2022-09-03T17:20:33;11.10;;;4.40;;
61709;SDS011;47633;51.494;5.386;2022-09-03T17:25:39;6.55;;;3.85;;
61709;SDS011;47633;51.494;5.386;2022-09-03T17:34:10;7.20;;;4.00;;
61709;SDS011;47633;51.494;5.386;2022-09-03T17:42:31;7.25;;;3.90;;
61709;SDS011;47633;51.494;5.386;2022-09-03T17:51:00;6.53;;;3.60;;
61709;SDS011;47633;51.494;5.386;2022-09-03T17:53:38;7.03;;;3.40;;
61709;SDS011;47633;51.494;5.386;2022-09-03T17:56:29;6.38;;;3.38;;
61709;SDS011;47633;51.494;5.386;2022-09-03T17:59:21;6.50;;;3.90;;
61709;SDS011;47633;51.494;5.386;2022-09-03T18:05:07;6.32;;;3.50;;
61709;SDS011;47633;51.494;5.386;2022-09-03T18:07:45;6.15;;;3.42;;
61709;SDS011;47633;51.494;5.386;2022-09-03T18:10:26;4.55;;;2.92;;
61709;SDS011;47633;51.494;5.386;2022-09-03T18:15:37;5.72;;;3.10;;
61709;SDS011;47633;51.494;5.386;2022-09-03T18:18:28;6.03;;;2.90;;
61709;SDS011;47633;51.494;5.386;2022-09-03T18:20:59;7.90;;;3.25;;
61709;SDS011;47633;51.494;5.386;2022-09-03T18:23:57;5.43;;;3.20;;
61709;SDS011;47633;51.494;5.386;2022-09-03T18:26:51;7.03;;;3.67;;
61709;SDS011;47633;51.494;5.386;2022-09-03T18:32:28;8.32;;;3.38;;
61709;SDS011;47633;51.494;5.386;2022-09-03T18:35:13;5.85;;;3.35;;
61709;SDS011;47633;51.494;5.386;2022-09-03T18:37:57;5.55;;;3.00;;
61709;SDS011;47633;51.494;5.386;2022-09-03T18:50:31;5.40;;;3.10;;
61709;SDS011;47633;51.494;5.386;2022-09-03T18:56:55;5.03;;;2.60;;
61709;SDS011;47633;51.494;5.386;2022-09-03T19:00:01;4.38;;;2.47;;
61709;SDS011;47633;51.494;5.386;2022-09-03T19:11:58;4.70;;;2.80;;
61709;SDS011;47633;51.494;5.386;2022-09-03T19:15:05;5.90;;;3.15;;
61709;SDS011;47633;51.494;5.386;2022-09-03T19:18:06;4.18;;;2.50;;
61709;SDS011;47633;51.494;5.386;2022-09-03T19:23:54;5.47;;;2.55;;
61709;SDS011;47633;51.494;5.386;2022-09-03T19:26:44;4.00;;;2.50;;
61709;SDS011;47633;51.494;5.386;2022-09-03T19:29:49;5.05;;;2.60;;
61709;SDS011;47633;51.494;5.386;2022-09-03T19:32:56;5.38;;;2.70;;
61709;SDS011;47633;51.494;5.386;2022-09-03T19:35:55;4.93;;;2.80;;
61709;SDS011;47633;51.494;5.386;2022-09-03T19:42:17;4.18;;;2.70;;
61709;SDS011;47633;51.494;5.386;2022-09-03T19:51:20;4.63;;;2.78;;
61709;SDS011;47633;51.494;5.386;2022-09-03T19:54:08;4.00;;;2.50;;
61709;SDS011;47633;51.494;5.386;2022-09-03T19:56:53;4.88;;;2.70;;
61709;SDS011;47633;51.494;5.386;2022-09-03T19:59:39;5.63;;;2.80;;
61709;SDS011;47633;51.494;5.386;2022-09-03T20:02:26;5.43;;;2.65;;
61709;SDS011;47633;51.494;5.386;2022-09-03T20:05:11;4.45;;;2.60;;
61709;SDS011;47633;51.494;5.386;2022-09-03T20:07:59;5.28;;;2.60;;
61709;SDS011;47633;51.494;5.386;2022-09-03T20:10:43;4.72;;;2.78;;
61709;SDS011;47633;51.494;5.386;2022-09-03T20:13:21;5.00;;;2.90;;